Velserdijk — PBIC — position and weather

sailwx.info

Track history (hours):
 
Tides and Currents Weather Stations Pressure Air Temp Water Temp Dewpoint Dewpoint Depression Visibility Wind Speed Wind Dir Waves Ship Positions

Velserdijk

Last reported at 2018-Jan-11 21:39 UTC. Time now 2018-Jan-19 21:37 UTC.
Position N 38°26' W 010°01'.

; draft 5.6 m.

Type: Cargo ship. MMSI: 244865000.

Date/timePositionNaut miles runAvg speedWind from/ knotsBaromVisibWave heightAir tempDewpointWater temp
2018-Jan-11 21:39N 38°26' W 010°01'210.3
2018-Jan-11 21:29N 38°28' W 010°02'1410.1
2018-Jan-11 20:06N 38°41' W 010°06'4 9.7
2018-Jan-11 19:40N 38°46' W 010°06'3 9.8
2018-Jan-11 19:22N 38°49' W 010°06'4 9.7
2018-Jan-11 18:57N 38°53' W 010°06'4 9.5
2018-Jan-11 18:30N 38°57' W 010°06'5 9.7
2018-Jan-11 18:00N 39°02' W 010°06'5 9.8
2018-Jan-11 17:30N 39°07' W 010°06'  
2018-Jan-07 23:51N 49°50' W 003°20'3 9.0
2018-Jan-07 23:30N 49°52' W 003°16'10 8.7
2018-Jan-07 22:21N 49°56' W 003°02'3 8.9
2018-Jan-07 22:00N 49°58' W 002°58'8 9.4
2018-Jan-07 21:08N 50°00' W 002°46'110.0
2018-Jan-07 21:00N 50°01' W 002°44'510.0
2018-Jan-07 20:28N 50°03' W 002°36'9610.7
2018-Jan-07 11:27N 50°28' W 000°11'4 9.2
2018-Jan-07 10:58N 50°30' W 000°04'5 9.7
2018-Jan-07 10:30N 50°31' E 000°03'510.3
2018-Jan-07 10:00N 50°32' E 000°10'510.9
2018-Jan-07 09:30N 50°34' E 000°19'611.4
2018-Jan-07 08:58N 50°35' E 000°28'511.6
2018-Jan-07 08:30N 50°37' E 000°36'611.8
2018-Jan-07 08:00N 50°40' E 000°44'611.9
2018-Jan-07 07:30N 50°44' E 000°52'2011.1
2018-Jan-07 05:40N 50°55' E 001°18'210.7
2018-Jan-07 05:30N 50°57' E 001°20'7 9.8
2018-Jan-07 04:47N 51°02' E 001°27'3 8.7
2018-Jan-07 04:28N 51°04' E 001°30'4 9.0
2018-Jan-07 04:00N 51°07' E 001°35'4 8.5
2018-Jan-07 03:30N 51°10' E 001°40'4 8.9
2018-Jan-07 03:00N 51°13' E 001°45'5 9.6
2018-Jan-07 02:30N 51°17' E 001°50'510.4
2018-Jan-07 02:00N 51°21' E 001°55'510.9
2018-Jan-07 01:30N 51°25' E 002°00'9 9.0
2018-Jan-07 00:29N 51°21' E 002°14'510.3
2018-Jan-07 00:00N 51°21' E 002°22'611.9
2018-Jan-06 23:30N 51°23' E 002°31'510.5
2018-Jan-06 22:59N 51°22' E 002°40'4 7.7
2018-Jan-06 22:30N 51°21' E 002°46'5 9.9
2018-Jan-06 22:00N 51°23' E 002°53'611.7
2018-Jan-06 21:30N 51°24' E 003°02'612.1
2018-Jan-06 21:00N 51°24' E 003°12'713.3
2018-Jan-06 20:30N 51°25' E 003°22'713.8
2018-Jan-06 19:59N 51°26' E 003°34'5 9.8
2018-Jan-06 19:30N 51°24' E 003°41'612.7
2018-Jan-06 19:01N 51°21' E 003°49'611.3
2018-Jan-06 18:30N 51°24' E 003°57'3 6.5
2018-Jan-06 18:01N 51°25' E 004°02'4 7.9
2018-Jan-06 17:31N 51°22' E 004°06'4 8.1
2018-Jan-06 17:00N 51°24' E 004°13'4 7.4
2018-Jan-06 16:31N 51°21' E 004°16'1 1.4
2018-Jan-06 16:00N 51°21' E 004°17'0 0.0
2018-Jan-06 15:30N 51°21' E 004°17'1 1.2
2018-Jan-06 15:00N 51°21' E 004°17'0 0.0
2018-Jan-06 14:23N 51°21' E 004°17'0 0.0
2018-Jan-06 13:59N 51°21' E 004°17'0 0.0
2018-Jan-06 13:20N 51°21' E 004°17'0 0.0
2018-Jan-06 12:59N 51°21' E 004°17'0 0.0
2018-Jan-06 11:59N 51°21' E 004°17'0 0.0
2018-Jan-06 11:23N 51°21' E 004°17'0 0.0
2018-Jan-06 10:05N 51°21' E 004°17'0 0.1
2018-Jan-06 09:59N 51°21' E 004°17'0 0.0
2018-Jan-06 09:29N 51°21' E 004°17'0 0.0
2018-Jan-06 08:59N 51°21' E 004°17'0 0.0
2018-Jan-06 08:11N 51°21' E 004°17'0 0.0
2018-Jan-06 07:59N 51°21' E 004°17'0 0.0
2018-Jan-06 07:26N 51°21' E 004°17'0 0.0
2018-Jan-06 07:00N 51°21' E 004°17'0 0.7
2018-Jan-06 06:30N 51°22' E 004°17'0 0.0
2018-Jan-06 05:29N 51°22' E 004°17'0 0.0
2018-Jan-06 04:47N 51°22' E 004°17'0 0.0
2018-Jan-05 17:35N 51°22' E 004°17'0 0.0
2018-Jan-05 14:47N 51°22' E 004°17'0 0.0
2018-Jan-05 10:23N 51°22' E 004°17'0 0.0
2018-Jan-05 09:59N 51°22' E 004°17'0 0.0
2018-Jan-05 09:29N 51°22' E 004°17'0 0.0
2018-Jan-05 08:56N 51°22' E 004°17'0 0.0
2018-Jan-05 03:17N 51°22' E 004°17'0 0.0
2018-Jan-05 02:59N 51°22' E 004°17'0 0.0
2018-Jan-05 02:29N 51°22' E 004°17'0 0.0
2018-Jan-05 01:11N 51°22' E 004°17'0 0.0
2018-Jan-05 00:59N 51°22' E 004°17'0 0.0
2018-Jan-04 23:11N 51°22' E 004°17'0 0.0
2018-Jan-04 22:59N 51°22' E 004°17'0 0.0
2018-Jan-04 20:23N 51°22' E 004°17'0 0.0
2018-Jan-04 19:53N 51°22' E 004°17'0 0.0
2018-Jan-04 19:29N 51°22' E 004°17'0 0.0
2018-Jan-04 18:26N 51°22' E 004°17'0 0.0
2018-Jan-04 17:05N 51°22' E 004°17'0 0.0
2018-Jan-04 16:47N 51°22' E 004°17'0 0.0
2018-Jan-04 15:47N 51°22' E 004°17'0 0.0
2018-Jan-04 14:39N 51°22' E 004°17'0 0.1
2018-Jan-04 14:26N 51°22' E 004°17'1 2.3
2018-Jan-04 14:01N 51°21' E 004°17'0 0.0
2018-Jan-04 13:30N 51°21' E 004°17'0 0.0
2018-Jan-04 13:00N 51°21' E 004°17'1 1.3
2018-Jan-04 12:30N 51°21' E 004°16'4 9.0
2018-Jan-04 12:01N 51°24' E 004°11'510.5
2018-Jan-04 11:31N 51°23' E 004°02'3 5.9
2018-Jan-04 11:00N 51°24' E 003°58'510.8
2018-Jan-04 10:30N 51°21' E 003°51'510.2
2018-Jan-04 10:00N 51°23' E 003°43'510.2
2018-Jan-04 09:28N 51°25' E 003°36'4 9.1
2018-Jan-04 08:59N 51°28' E 003°31'611.2
2018-Jan-04 08:27N 51°33' E 003°25'710.4
2018-Jan-04 07:45N 51°39' E 003°19'310.6
2018-Jan-04 07:27N 51°42' E 003°17'10 9.7
2018-Jan-04 06:24N 51°50' E 003°06'59 8.8
2018-Jan-03 23:43N 52°37' E 002°08'311.3
2018-Jan-03 23:28N 52°39' E 002°05'511.5
2018-Jan-03 23:00N 52°44' E 002°00'612.2
2018-Jan-03 22:30N 52°48' E 001°53'612.6
2018-Jan-03 22:01N 52°51' E 001°44'612.8
2018-Jan-03 21:30N 52°53' E 001°34'713.2
2018-Jan-03 21:01N 52°57' E 001°25'713.3
2018-Jan-03 20:31N 52°59' E 001°15'5312.0
2018-Jan-03 16:08N 53°33' E 000°07'1 8.3
2018-Jan-03 16:01N 53°34' E 000°06'3 6.9
2018-Jan-03 15:30N 53°35' E 000°00'4 8.7
2018-Jan-03 15:00N 53°37' W 000°06'3 5.1
2018-Jan-03 14:24N 53°38' W 000°11'0 0.4
2018-Jan-03 13:54N 53°38' W 000°12'0 0.0
2018-Jan-03 13:30N 53°38' W 000°12'0 0.0
2018-Jan-03 13:00N 53°38' W 000°12'0 0.0
2018-Jan-03 12:27N 53°38' W 000°12'0 0.0
2018-Jan-03 11:54N 53°38' W 000°12'0 0.0
2018-Jan-03 11:30N 53°38' W 000°12'0 0.0
2018-Jan-03 11:00N 53°38' W 000°12'0 0.0
2018-Jan-03 10:27N 53°38' W 000°12'0 0.0
2018-Jan-03 10:00N 53°38' W 000°12'0 0.0
2018-Jan-03 09:30N 53°38' W 000°12'0 0.0
2018-Jan-03 09:00N 53°38' W 000°12'0 0.0
2018-Jan-03 08:18N 53°38' W 000°12'0 0.0
2018-Jan-03 07:54N 53°38' W 000°12'0 0.0
2018-Jan-03 07:21N 53°38' W 000°12'0 0.0
2018-Jan-03 06:54N 53°38' W 000°12'0 0.0
2018-Jan-03 06:27N 53°38' W 000°12'0 0.0
2018-Jan-03 05:54N 53°38' W 000°12'0 0.0
2018-Jan-03 05:21N 53°38' W 000°12'0 0.0
2018-Jan-03 04:57N 53°38' W 000°12'0 0.0
2018-Jan-03 04:30N 53°38' W 000°12'0 0.0
2018-Jan-03 03:48N 53°38' W 000°12'0 0.0
2018-Jan-03 03:27N 53°38' W 000°12'0 0.0
2018-Jan-03 02:57N 53°38' W 000°12'0 0.0
2018-Jan-03 02:27N 53°38' W 000°12'0 0.0
2018-Jan-03 01:57N 53°38' W 000°12'0 0.0
2018-Jan-03 00:45N 53°38' W 000°12'0 0.0
2018-Jan-03 00:27N 53°38' W 000°12'0 0.0
2018-Jan-02 23:57N 53°38' W 000°12'0 0.0
2018-Jan-02 23:27N 53°38' W 000°12'0 0.0
2018-Jan-02 22:03N 53°38' W 000°12'0 0.0
2018-Jan-02 21:57N 53°38' W 000°12'0 0.0
2018-Jan-02 21:21N 53°38' W 000°12'0 0.0
2018-Jan-02 20:57N 53°38' W 000°12'0 0.0
2018-Jan-02 20:27N 53°38' W 000°12'0 0.0
2018-Jan-02 19:51N 53°38' W 000°12'0 0.0
2018-Jan-02 17:39N 53°38' W 000°12'0 0.0
2018-Jan-02 17:24N 53°38' W 000°12'0 0.0
2018-Jan-02 17:00N 53°38' W 000°12'0 0.0
2018-Jan-02 16:30N 53°38' W 000°12'0 0.0
2018-Jan-02 15:51N 53°38' W 000°12'0 0.0
2018-Jan-02 15:30N 53°38' W 000°12'0 0.0
2018-Jan-02 14:57N 53°38' W 000°12'0 0.0
2018-Jan-02 14:30N 53°38' W 000°12'0 0.0
2018-Jan-02 14:00N 53°38' W 000°12'0 0.0
2018-Jan-02 13:30N 53°38' W 000°12'0 0.0
2018-Jan-02 13:00N 53°38' W 000°12'0 0.0
2018-Jan-02 12:30N 53°38' W 000°12'0 0.0
2018-Jan-02 12:00N 53°38' W 000°12'0 0.0
2018-Jan-02 11:30N 53°38' W 000°12'0 0.0
2018-Jan-02 11:00N 53°38' W 000°12'0 0.0
2018-Jan-02 10:30N 53°38' W 000°12'0 0.0
2018-Jan-02 10:00N 53°38' W 000°12'0 0.0
2018-Jan-02 09:30N 53°38' W 000°12'0 0.0
2018-Jan-02 08:30N 53°38' W 000°12'0 0.0
2018-Jan-02 07:57N 53°38' W 000°12'0 0.0
2018-Jan-02 07:30N 53°38' W 000°12'0 0.0
2018-Jan-02 06:45N 53°38' W 000°12'0 0.0
2018-Jan-02 06:27N 53°38' W 000°12'0 0.0
2018-Jan-02 06:00N 53°38' W 000°12'0 0.0
2018-Jan-02 05:27N 53°38' W 000°12'0 0.0
2018-Jan-02 04:30N 53°38' W 000°12'0 0.0
2018-Jan-02 03:57N 53°38' W 000°12'0 0.0
2018-Jan-02 03:27N 53°38' W 000°12'0 0.0
2018-Jan-02 03:00N 53°38' W 000°12'0 0.0
2018-Jan-02 02:30N 53°38' W 000°12'0 0.0
2018-Jan-02 01:57N 53°38' W 000°12'0 0.0
2018-Jan-02 01:30N 53°38' W 000°12'0 0.0
2018-Jan-02 01:00N 53°38' W 000°12'0 0.0
2018-Jan-02 00:27N 53°38' W 000°12'0 0.0
2018-Jan-01 23:57N 53°38' W 000°12'0 0.0
2018-Jan-01 23:30N 53°38' W 000°12'0 0.0
2018-Jan-01 23:00N 53°38' W 000°12'0 0.0
2018-Jan-01 22:30N 53°38' W 000°12'0 0.0
2018-Jan-01 21:57N 53°38' W 000°12'  
Track history (hours):
 
Tides and Currents Weather Stations Pressure Air Temp Water Temp Dewpoint Dewpoint Depression Visibility Wind Speed Wind Dir Waves Ship Positions

Velserdijk

Last reported at 2018-Jan-11 21:39 UTC. Time now 2018-Jan-19 21:37 UTC.
Position N 38°26' W 010°01'.

; draft 5.6 m.

Type: Cargo ship. MMSI: 244865000.

Date/timePositionNaut miles runAvg speedWind from/ knotsBaromVisibWave heightAir tempDewpointWater temp
2018-Jan-11 21:39N 38°26' W 010°01'210.3
2018-Jan-11 21:29N 38°28' W 010°02'1410.1
2018-Jan-11 20:06N 38°41' W 010°06'4 9.7
2018-Jan-11 19:40N 38°46' W 010°06'3 9.8
2018-Jan-11 19:22N 38°49' W 010°06'4 9.7
2018-Jan-11 18:57N 38°53' W 010°06'4 9.5
2018-Jan-11 18:30N 38°57' W 010°06'5 9.7
2018-Jan-11 18:00N 39°02' W 010°06'5 9.8
2018-Jan-11 17:30N 39°07' W 010°06'  
2018-Jan-07 23:51N 49°50' W 003°20'3 9.0
2018-Jan-07 23:30N 49°52' W 003°16'10 8.7
2018-Jan-07 22:21N 49°56' W 003°02'3 8.9
2018-Jan-07 22:00N 49°58' W 002°58'8 9.4
2018-Jan-07 21:08N 50°00' W 002°46'110.0
2018-Jan-07 21:00N 50°01' W 002°44'510.0
2018-Jan-07 20:28N 50°03' W 002°36'9610.7
2018-Jan-07 11:27N 50°28' W 000°11'4 9.2
2018-Jan-07 10:58N 50°30' W 000°04'5 9.7
2018-Jan-07 10:30N 50°31' E 000°03'510.3
2018-Jan-07 10:00N 50°32' E 000°10'510.9
2018-Jan-07 09:30N 50°34' E 000°19'611.4
2018-Jan-07 08:58N 50°35' E 000°28'511.6
2018-Jan-07 08:30N 50°37' E 000°36'611.8
2018-Jan-07 08:00N 50°40' E 000°44'611.9
2018-Jan-07 07:30N 50°44' E 000°52'2011.1
2018-Jan-07 05:40N 50°55' E 001°18'210.7
2018-Jan-07 05:30N 50°57' E 001°20'7 9.8
2018-Jan-07 04:47N 51°02' E 001°27'3 8.7
2018-Jan-07 04:28N 51°04' E 001°30'4 9.0
2018-Jan-07 04:00N 51°07' E 001°35'4 8.5
2018-Jan-07 03:30N 51°10' E 001°40'4 8.9
2018-Jan-07 03:00N 51°13' E 001°45'5 9.6
2018-Jan-07 02:30N 51°17' E 001°50'510.4
2018-Jan-07 02:00N 51°21' E 001°55'510.9
2018-Jan-07 01:30N 51°25' E 002°00'9 9.0
2018-Jan-07 00:29N 51°21' E 002°14'510.3
2018-Jan-07 00:00N 51°21' E 002°22'611.9
2018-Jan-06 23:30N 51°23' E 002°31'510.5
2018-Jan-06 22:59N 51°22' E 002°40'4 7.7
2018-Jan-06 22:30N 51°21' E 002°46'5 9.9
2018-Jan-06 22:00N 51°23' E 002°53'611.7
2018-Jan-06 21:30N 51°24' E 003°02'612.1
2018-Jan-06 21:00N 51°24' E 003°12'713.3
2018-Jan-06 20:30N 51°25' E 003°22'713.8
2018-Jan-06 19:59N 51°26' E 003°34'5 9.8
2018-Jan-06 19:30N 51°24' E 003°41'612.7
2018-Jan-06 19:01N 51°21' E 003°49'611.3
2018-Jan-06 18:30N 51°24' E 003°57'3 6.5
2018-Jan-06 18:01N 51°25' E 004°02'4 7.9
2018-Jan-06 17:31N 51°22' E 004°06'4 8.1
2018-Jan-06 17:00N 51°24' E 004°13'4 7.4
2018-Jan-06 16:31N 51°21' E 004°16'1 1.4
2018-Jan-06 16:00N 51°21' E 004°17'0 0.0
2018-Jan-06 15:30N 51°21' E 004°17'1 1.2
2018-Jan-06 15:00N 51°21' E 004°17'0 0.0
2018-Jan-06 14:23N 51°21' E 004°17'0 0.0
2018-Jan-06 13:59N 51°21' E 004°17'0 0.0
2018-Jan-06 13:20N 51°21' E 004°17'0 0.0
2018-Jan-06 12:59N 51°21' E 004°17'0 0.0
2018-Jan-06 11:59N 51°21' E 004°17'0 0.0
2018-Jan-06 11:23N 51°21' E 004°17'0 0.0
2018-Jan-06 10:05N 51°21' E 004°17'0 0.1
2018-Jan-06 09:59N 51°21' E 004°17'0 0.0
2018-Jan-06 09:29N 51°21' E 004°17'0 0.0
2018-Jan-06 08:59N 51°21' E 004°17'0 0.0
2018-Jan-06 08:11N 51°21' E 004°17'0 0.0
2018-Jan-06 07:59N 51°21' E 004°17'0 0.0
2018-Jan-06 07:26N 51°21' E 004°17'0 0.0
2018-Jan-06 07:00N 51°21' E 004°17'0 0.7
2018-Jan-06 06:30N 51°22' E 004°17'0 0.0
2018-Jan-06 05:29N 51°22' E 004°17'0 0.0
2018-Jan-06 04:47N 51°22' E 004°17'0 0.0
2018-Jan-05 17:35N 51°22' E 004°17'0 0.0
2018-Jan-05 14:47N 51°22' E 004°17'0 0.0
2018-Jan-05 10:23N 51°22' E 004°17'0 0.0
2018-Jan-05 09:59N 51°22' E 004°17'0 0.0
2018-Jan-05 09:29N 51°22' E 004°17'0 0.0
2018-Jan-05 08:56N 51°22' E 004°17'0 0.0
2018-Jan-05 03:17N 51°22' E 004°17'0 0.0
2018-Jan-05 02:59N 51°22' E 004°17'0 0.0
2018-Jan-05 02:29N 51°22' E 004°17'0 0.0
2018-Jan-05 01:11N 51°22' E 004°17'0 0.0
2018-Jan-05 00:59N 51°22' E 004°17'0 0.0
2018-Jan-04 23:11N 51°22' E 004°17'0 0.0
2018-Jan-04 22:59N 51°22' E 004°17'0 0.0
2018-Jan-04 20:23N 51°22' E 004°17'0 0.0
2018-Jan-04 19:53N 51°22' E 004°17'0 0.0
2018-Jan-04 19:29N 51°22' E 004°17'0 0.0
2018-Jan-04 18:26N 51°22' E 004°17'0 0.0
2018-Jan-04 17:05N 51°22' E 004°17'0 0.0
2018-Jan-04 16:47N 51°22' E 004°17'0 0.0
2018-Jan-04 15:47N 51°22' E 004°17'0 0.0
2018-Jan-04 14:39N 51°22' E 004°17'0 0.1
2018-Jan-04 14:26N 51°22' E 004°17'1 2.3
2018-Jan-04 14:01N 51°21' E 004°17'0 0.0
2018-Jan-04 13:30N 51°21' E 004°17'0 0.0
2018-Jan-04 13:00N 51°21' E 004°17'1 1.3
2018-Jan-04 12:30N 51°21' E 004°16'4 9.0
2018-Jan-04 12:01N 51°24' E 004°11'510.5
2018-Jan-04 11:31N 51°23' E 004°02'3 5.9
2018-Jan-04 11:00N 51°24' E 003°58'510.8
2018-Jan-04 10:30N 51°21' E 003°51'510.2
2018-Jan-04 10:00N 51°23' E 003°43'510.2
2018-Jan-04 09:28N 51°25' E 003°36'4 9.1
2018-Jan-04 08:59N 51°28' E 003°31'611.2
2018-Jan-04 08:27N 51°33' E 003°25'710.4
2018-Jan-04 07:45N 51°39' E 003°19'310.6
2018-Jan-04 07:27N 51°42' E 003°17'10 9.7
2018-Jan-04 06:24N 51°50' E 003°06'59 8.8
2018-Jan-03 23:43N 52°37' E 002°08'311.3
2018-Jan-03 23:28N 52°39' E 002°05'511.5
2018-Jan-03 23:00N 52°44' E 002°00'612.2
2018-Jan-03 22:30N 52°48' E 001°53'612.6
2018-Jan-03 22:01N 52°51' E 001°44'612.8
2018-Jan-03 21:30N 52°53' E 001°34'713.2
2018-Jan-03 21:01N 52°57' E 001°25'713.3
2018-Jan-03 20:31N 52°59' E 001°15'5312.0
2018-Jan-03 16:08N 53°33' E 000°07'1 8.3
2018-Jan-03 16:01N 53°34' E 000°06'3 6.9
2018-Jan-03 15:30N 53°35' E 000°00'4 8.7
2018-Jan-03 15:00N 53°37' W 000°06'3 5.1
2018-Jan-03 14:24N 53°38' W 000°11'0 0.4
2018-Jan-03 13:54N 53°38' W 000°12'0 0.0
2018-Jan-03 13:30N 53°38' W 000°12'0 0.0
2018-Jan-03 13:00N 53°38' W 000°12'0 0.0
2018-Jan-03 12:27N 53°38' W 000°12'0 0.0
2018-Jan-03 11:54N 53°38' W 000°12'0 0.0
2018-Jan-03 11:30N 53°38' W 000°12'0 0.0
2018-Jan-03 11:00N 53°38' W 000°12'0 0.0
2018-Jan-03 10:27N 53°38' W 000°12'0 0.0
2018-Jan-03 10:00N 53°38' W 000°12'0 0.0
2018-Jan-03 09:30N 53°38' W 000°12'0 0.0
2018-Jan-03 09:00N 53°38' W 000°12'0 0.0
2018-Jan-03 08:18N 53°38' W 000°12'0 0.0
2018-Jan-03 07:54N 53°38' W 000°12'0 0.0
2018-Jan-03 07:21N 53°38' W 000°12'0 0.0
2018-Jan-03 06:54N 53°38' W 000°12'0 0.0
2018-Jan-03 06:27N 53°38' W 000°12'0 0.0
2018-Jan-03 05:54N 53°38' W 000°12'0 0.0
2018-Jan-03 05:21N 53°38' W 000°12'0 0.0
2018-Jan-03 04:57N 53°38' W 000°12'0 0.0
2018-Jan-03 04:30N 53°38' W 000°12'0 0.0
2018-Jan-03 03:48N 53°38' W 000°12'0 0.0
2018-Jan-03 03:27N 53°38' W 000°12'0 0.0
2018-Jan-03 02:57N 53°38' W 000°12'0 0.0
2018-Jan-03 02:27N 53°38' W 000°12'0 0.0
2018-Jan-03 01:57N 53°38' W 000°12'0 0.0
2018-Jan-03 00:45N 53°38' W 000°12'0 0.0
2018-Jan-03 00:27N 53°38' W 000°12'0 0.0
2018-Jan-02 23:57N 53°38' W 000°12'0 0.0
2018-Jan-02 23:27N 53°38' W 000°12'0 0.0
2018-Jan-02 22:03N 53°38' W 000°12'0 0.0
2018-Jan-02 21:57N 53°38' W 000°12'0 0.0
2018-Jan-02 21:21N 53°38' W 000°12'0 0.0
2018-Jan-02 20:57N 53°38' W 000°12'0 0.0
2018-Jan-02 20:27N 53°38' W 000°12'0 0.0
2018-Jan-02 19:51N 53°38' W 000°12'0 0.0
2018-Jan-02 17:39N 53°38' W 000°12'0 0.0
2018-Jan-02 17:24N 53°38' W 000°12'0 0.0
2018-Jan-02 17:00N 53°38' W 000°12'0 0.0
2018-Jan-02 16:30N 53°38' W 000°12'0 0.0
2018-Jan-02 15:51N 53°38' W 000°12'0 0.0
2018-Jan-02 15:30N 53°38' W 000°12'0 0.0
2018-Jan-02 14:57N 53°38' W 000°12'0 0.0
2018-Jan-02 14:30N 53°38' W 000°12'0 0.0
2018-Jan-02 14:00N 53°38' W 000°12'0 0.0
2018-Jan-02 13:30N 53°38' W 000°12'0 0.0
2018-Jan-02 13:00N 53°38' W 000°12'0 0.0
2018-Jan-02 12:30N 53°38' W 000°12'0 0.0
2018-Jan-02 12:00N 53°38' W 000°12'0 0.0
2018-Jan-02 11:30N 53°38' W 000°12'0 0.0
2018-Jan-02 11:00N 53°38' W 000°12'0 0.0
2018-Jan-02 10:30N 53°38' W 000°12'0 0.0
2018-Jan-02 10:00N 53°38' W 000°12'0 0.0
2018-Jan-02 09:30N 53°38' W 000°12'0 0.0
2018-Jan-02 08:30N 53°38' W 000°12'0 0.0
2018-Jan-02 07:57N 53°38' W 000°12'0 0.0
2018-Jan-02 07:30N 53°38' W 000°12'0 0.0
2018-Jan-02 06:45N 53°38' W 000°12'0 0.0
2018-Jan-02 06:27N 53°38' W 000°12'0 0.0
2018-Jan-02 06:00N 53°38' W 000°12'0 0.0
2018-Jan-02 05:27N 53°38' W 000°12'0 0.0
2018-Jan-02 04:30N 53°38' W 000°12'0 0.0
2018-Jan-02 03:57N 53°38' W 000°12'0 0.0
2018-Jan-02 03:27N 53°38' W 000°12'0 0.0
2018-Jan-02 03:00N 53°38' W 000°12'0 0.0
2018-Jan-02 02:30N 53°38' W 000°12'0 0.0
2018-Jan-02 01:57N 53°38' W 000°12'0 0.0
2018-Jan-02 01:30N 53°38' W 000°12'0 0.0
2018-Jan-02 01:00N 53°38' W 000°12'0 0.0
2018-Jan-02 00:27N 53°38' W 000°12'0 0.0
2018-Jan-01 23:57N 53°38' W 000°12'0 0.0
2018-Jan-01 23:30N 53°38' W 000°12'0 0.0
2018-Jan-01 23:00N 53°38' W 000°12'0 0.0
2018-Jan-01 22:30N 53°38' W 000°12'0 0.0
2018-Jan-01 21:57N 53°38' W 000°12'  

Dump ship's entire track history